Time;durP1;ratioP1;P1;durP2;ratioP2;P2;SDS_P1;SDS_P2;PMS_P1;PMS_P2;Temp;Humidity;BMP_temperature;BMP_pressure;BME280_temperature;BME280_humidity;BME280_pressure;Samples;Min_cycle;Max_cycle;Signal;HPM_P1;HPM_P2
2021/12/06 00:01:05;;;;;;;19.80;5.20;;;;;;;2.60;78.90;100141.72;4963921;28;20051;-54
2021/12/06 00:03:39;;;;;;;15.55;7.32;;;;;;;2.65;78.37;100137.63;4966078;28;20093;-58
2021/12/06 00:06:06;;;;;;;16.40;5.18;;;;;;;2.69;79.91;100142.00;4967727;28;20102;-59
2021/12/06 00:08:33;;;;;;;18.60;7.50;;;;;;;2.74;78.54;100143.03;4967819;28;20045;-57
2021/12/06 00:11:07;;;;;;;16.92;5.38;;;;;;;2.77;78.44;100127.75;4969230;28;20046;-51
2021/12/06 00:13:37;;;;;;;16.08;6.47;;;;;;;2.80;78.47;100114.19;4968313;28;20430;-52
2021/12/06 00:16:08;;;;;;;17.30;5.75;;;;;;;2.84;79.25;100100.69;4966488;28;20051;-52
2021/12/06 00:18:35;;;;;;;18.63;5.30;;;;;;;2.89;79.02;100090.56;4970455;28;20479;-56
2021/12/06 00:21:04;;;;;;;17.52;5.22;;;;;;;2.91;79.71;100092.34;4966820;28;20078;-50
2021/12/06 00:23:31;;;;;;;15.77;5.22;;;;;;;2.94;79.75;100089.03;4968760;28;20065;-50
2021/12/06 00:25:59;;;;;;;19.13;4.80;;;;;;;2.95;79.24;100090.75;4966558;28;20043;-53
2021/12/06 00:28:26;;;;;;;18.17;5.95;;;;;;;2.97;78.79;100094.22;4968760;28;20058;-52
2021/12/06 00:30:54;;;;;;;17.73;6.05;;;;;;;2.99;79.39;100091.72;4966992;28;20043;-58
2021/12/06 00:33:22;;;;;;;19.83;5.97;;;;;;;3.00;78.77;100098.59;4969829;28;20521;-56
2021/12/06 00:35:49;;;;;;;17.33;6.65;;;;;;;3.02;78.98;100095.25;4971858;28;20047;-55
2021/12/06 00:38:16;;;;;;;13.98;5.45;;;;;;;3.01;79.17;100093.47;4969561;28;20471;-54
2021/12/06 00:40:48;;;;;;;15.30;5.28;;;;;;;3.02;79.05;100090.13;4970771;28;20047;-53
2021/12/06 00:43:15;;;;;;;18.70;5.97;;;;;;;3.05;79.71;100091.91;4969232;28;20046;-53
2021/12/06 00:45:42;;;;;;;17.63;6.10;;;;;;;3.06;78.52;100079.16;4969662;28;20047;-52
2021/12/06 00:48:09;;;;;;;19.75;6.25;;;;;;;3.10;78.30;100069.00;4971686;28;20078;-51
2021/12/06 00:50:40;;;;;;;22.38;6.55;;;;;;;3.12;79.42;100057.09;4967210;28;20102;-57
2021/12/06 00:53:07;;;;;;;24.45;7.78;;;;;;;3.12;78.72;100057.09;4971830;28;20051;-52
2021/12/06 00:55:35;;;;;;;24.88;6.65;;;;;;;3.13;79.33;100053.69;4970309;28;20065;-56
2021/12/06 00:58:02;;;;;;;21.73;6.72;;;;;;;3.15;79.69;100057.19;4970190;28;20105;-52
2021/12/06 01:00:42;;;;;;;20.13;6.20;;;;;;;3.16;79.28;100064.03;4966895;28;20051;-54
2021/12/06 01:03:14;;;;;;;22.23;5.80;;;;;;;3.17;79.48;100068.31;4968176;28;20059;-54
2021/12/06 01:05:41;;;;;;;22.58;6.85;;;;;;;3.15;79.51;100075.97;4969268;28;20050;-53
2021/12/06 01:08:08;;;;;;;21.52;6.63;;;;;;;3.17;78.69;100086.25;4971596;28;20110;-58
2021/12/06 01:10:36;;;;;;;21.17;5.95;;;;;;;3.21;78.78;100095.78;4968734;28;20541;-53
2021/12/06 01:13:03;;;;;;;23.60;6.40;;;;;;;3.23;79.33;100088.97;4965561;28;20503;-55
2021/12/06 01:15:32;;;;;;;25.00;6.82;;;;;;;3.24;78.76;100072.78;4970486;28;20093;-55
2021/12/06 01:18:01;;;;;;;16.27;6.32;;;;;;;3.24;78.85;100067.66;4968617;28;20082;-59
2021/12/06 01:20:31;;;;;;;30.48;6.85;;;;;;;3.26;78.29;100066.03;4970218;28;20047;-53
2021/12/06 01:23:05;;;;;;;26.25;7.35;;;;;;;3.29;78.63;100050.75;4968017;28;20082;-54
2021/12/06 01:25:46;;;;;;;24.40;7.43;;;;;;;3.30;78.43;100042.25;4964986;28;20047;-56
2021/12/06 01:28:37;;;;;;;26.58;7.07;;;;;;;3.34;78.64;100033.81;4965329;28;20550;-56
2021/12/06 01:31:19;;;;;;;22.05;7.40;;;;;;;3.37;78.52;100042.41;4964319;28;20105;-51
2021/12/06 01:34:08;;;;;;;26.55;7.28;;;;;;;3.39;79.26;100030.50;4967225;28;20047;-53
2021/12/06 01:39:21;;;;;;;26.33;8.57;;;;;;;3.39;79.06;100031.41;4967305;28;20061;-53
2021/12/06 01:41:51;;;;;;;23.65;7.30;;;;;;;3.40;78.49;100037.34;4967766;28;20117;-56
2021/12/06 01:44:26;;;;;;;27.08;8.13;;;;;;;3.41;79.01;100031.44;4968678;28;20051;-52
2021/12/06 01:46:57;;;;;;;22.33;5.88;;;;;;;3.41;78.30;100034.00;4967839;28;20051;-53
2021/12/06 01:49:27;;;;;;;26.88;7.28;;;;;;;3.38;79.50;100047.56;4967893;28;20047;-53
2021/12/06 01:51:58;;;;;;;26.85;8.57;;;;;;;3.36;78.60;100049.22;4969895;28;20102;-54
2021/12/06 01:54:24;;;;;;;;;;;;;;;3.30;78.55;100039.69;4966809;28;20050;-53
2021/12/06 01:56:52;;;;;;;28.15;6.85;;;;;;;3.34;79.27;100033.81;4969749;28;19922;-55
2021/12/06 01:59:20;;;;;;;23.30;7.80;;;;;;;3.36;78.87;100025.31;4968203;28;20442;-53
2021/12/06 02:01:48;;;;;;;26.85;6.63;;;;;;;3.35;79.44;100019.34;4968390;28;20138;-56
2021/12/06 02:04:15;;;;;;;22.02;6.63;;;;;;;3.31;78.43;100018.38;4967930;28;20038;-50
2021/12/06 02:06:42;;;;;;;24.77;7.50;;;;;;;3.28;78.63;100018.28;4967875;28;20073;-52
2021/12/06 02:09:12;;;;;;;31.77;8.38;;;;;;;3.29;79.40;100025.16;4967622;28;20042;-52
2021/12/06 02:11:40;;;;;;;25.75;6.55;;;;;;;3.28;79.13;100013.16;4966573;28;20449;-52
2021/12/06 02:14:32;;;;;;;25.73;5.90;;;;;;;3.27;78.25;100001.19;4970065;28;20047;-54
2021/12/06 02:17:20;;;;;;;41.97;7.03;;;;;;;3.28;78.04;99989.28;4967117;28;20109;-52
2021/12/06 02:19:50;;;;;;;21.17;6.03;;;;;;;3.27;79.31;99990.13;4967836;28;20043;-48
2021/12/06 02:22:21;;;;;;;26.38;6.63;;;;;;;3.27;78.59;99990.97;4966198;28;20042;-51
2021/12/06 02:24:49;;;;;;;26.02;6.13;;;;;;;3.27;78.48;99995.22;4968684;28;20047;-56
2021/12/06 02:27:16;;;;;;;24.10;6.35;;;;;;;3.29;79.06;99997.00;4967095;28;20454;-52
2021/12/06 02:29:46;;;;;;;22.73;6.95;;;;;;;3.29;78.96;99997.00;4965028;28;20066;-56
2021/12/06 02:32:14;;;;;;;38.25;5.40;;;;;;;3.29;78.16;99997.00;4967697;28;20093;-53
2021/12/06 02:34:45;;;;;;;36.33;5.95;;;;;;;3.27;79.15;99996.09;4965082;28;20039;-52
2021/12/06 02:37:13;;;;;;;26.67;5.47;;;;;;;3.28;79.11;99999.53;4965833;28;20110;-51
2021/12/06 02:39:40;;;;;;;21.58;5.90;;;;;;;3.28;79.23;99991.84;4967533;28;20046;-54
2021/12/06 02:42:10;;;;;;;23.95;6.00;;;;;;;3.29;78.47;100004.69;4968460;28;20442;-55
2021/12/06 02:44:38;;;;;;;32.00;5.93;;;;;;;3.31;78.99;100002.16;4967604;28;20050;-54
2021/12/06 02:47:05;;;;;;;42.13;5.93;;;;;;;3.28;78.46;100002.91;4964129;28;20872;-55
2021/12/06 02:49:32;;;;;;;28.38;6.03;;;;;;;3.27;78.70;100008.88;4963990;28;20054;-52
2021/12/06 02:51:59;;;;;;;37.70;6.47;;;;;;;3.27;79.16;100008.88;4962042;28;20054;-52
2021/12/06 02:54:27;;;;;;;34.30;7.20;;;;;;;3.27;78.72;100014.00;4968203;28;20101;-53
2021/12/06 02:57:07;;;;;;;22.73;5.97;;;;;;;3.26;78.53;99999.47;4968378;28;20070;-54
2021/12/06 02:59:35;;;;;;;22.50;6.15;;;;;;;3.25;78.71;100008.00;4964931;28;20058;-51
2021/12/06 03:02:06;;;;;;;20.80;6.78;;;;;;;3.24;77.92;100021.59;4967921;28;20043;-54
2021/12/06 03:04:33;;;;;;;27.33;6.43;;;;;;;3.20;79.02;100030.00;4963073;28;20062;-52
2021/12/06 03:07:00;;;;;;;30.40;6.15;;;;;;;3.18;78.92;100016.31;4964498;28;20082;-49
2021/12/06 03:09:33;;;;;;;22.38;6.65;;;;;;;3.14;77.89;100014.50;4964812;28;20085;-55
2021/12/06 03:12:07;;;;;;;26.60;7.13;;;;;;;3.11;78.47;100019.53;4965227;28;20532;-53
2021/12/06 03:14:37;;;;;;;32.10;7.35;;;;;;;3.09;78.94;100014.38;4962953;28;20050;-55
2021/12/06 03:17:06;;;;;;;27.05;7.15;;;;;;;3.06;77.97;100007.50;4963019;28;20455;-54
2021/12/06 03:19:34;;;;;;;26.98;6.15;;;;;;;3.05;78.97;99994.66;4962992;28;20047;-55
2021/12/06 03:22:02;;;;;;;26.15;5.65;;;;;;;3.02;78.12;99990.31;4977813;28;20051;-55
2021/12/06 03:24:29;;;;;;;27.40;6.32;;;;;;;3.00;78.04;99981.72;4960595;28;20093;-58
2021/12/06 03:26:55;;;;;;;27.35;5.35;;;;;;;3.00;78.83;99986.84;4964586;28;20106;-56
2021/12/06 03:29:22;;;;;;;27.75;5.97;;;;;;;3.00;79.15;99980.88;4964371;28;20116;-55
2021/12/06 03:31:50;;;;;;;31.67;5.70;;;;;;;2.98;77.94;99977.38;4966609;28;20042;-51
2021/12/06 03:34:18;;;;;;;23.60;5.90;;;;;;;2.97;79.00;99979.06;4962364;28;20043;-52
2021/12/06 03:36:45;;;;;;;23.65;5.68;;;;;;;2.96;78.54;99974.78;4966954;28;20051;-53
2021/12/06 03:39:20;;;;;;;20.98;5.57;;;;;;;2.93;79.23;99969.59;4968249;28;20047;-52
2021/12/06 03:41:48;;;;;;;22.45;5.60;;;;;;;2.92;79.09;99963.63;4972518;28;20498;-56
2021/12/06 03:44:15;;;;;;;27.00;6.25;;;;;;;2.92;79.01;99955.94;4968977;28;20098;-49
2021/12/06 03:46:42;;;;;;;23.35;7.63;;;;;;;2.92;78.08;99952.50;4970322;28;20509;-58
2021/12/06 03:49:13;;;;;;;21.40;5.55;;;;;;;2.92;79.15;99949.94;4968853;28;20051;-52
2021/12/06 03:51:41;;;;;;;27.80;6.15;;;;;;;2.93;78.62;99949.13;4967374;28;20047;-53
2021/12/06 03:54:08;;;;;;;24.67;6.25;;;;;;;2.91;78.90;99948.22;4970303;28;20514;-54
2021/12/06 03:56:39;;;;;;;22.35;6.13;;;;;;;2.92;77.85;99939.72;4968306;28;20050;-52
2021/12/06 03:59:05;;;;;;;28.33;7.38;;;;;;;2.93;77.94;99938.88;4969816;28;20059;-53
2021/12/06 04:01:32;;;;;;;26.15;6.07;;;;;;;2.94;78.15;99950.88;4967065;28;20050;-49
2021/12/06 04:04:02;;;;;;;19.30;6.85;;;;;;;2.93;78.26;99954.22;4966881;28;20105;-53
2021/12/06 04:06:29;;;;;;;24.60;7.10;;;;;;;2.92;78.45;99948.25;4969553;28;20113;-55
2021/12/06 04:08:55;;;;;;;21.30;6.05;;;;;;;2.92;78.82;99942.28;4966718;28;20109;-52
2021/12/06 04:11:23;;;;;;;32.53;7.70;;;;;;;2.91;78.51;99943.09;4972016;28;20055;-49
2021/12/06 04:13:50;;;;;;;37.03;6.93;;;;;;;2.90;77.67;99929.44;4969181;28;20411;-56
2021/12/06 04:16:17;;;;;;;29.08;6.95;;;;;;;2.91;77.71;99935.44;4972492;28;20047;-55
2021/12/06 04:18:46;;;;;;;29.85;6.03;;;;;;;2.87;79.06;99918.28;4966157;28;20039;-52
2021/12/06 04:21:13;;;;;;;22.50;5.63;;;;;;;2.82;77.54;99921.56;4968882;28;20735;-50
2021/12/06 04:23:40;;;;;;;19.23;5.97;;;;;;;2.81;78.53;99927.50;4968640;28;20602;-52
2021/12/06 04:26:07;;;;;;;31.42;5.97;;;;;;;2.81;77.84;99924.94;4971541;28;20047;-54
2021/12/06 04:28:35;;;;;;;16.65;6.07;;;;;;;2.82;77.85;99931.81;4969481;28;20043;-51
2021/12/06 04:31:04;;;;;;;21.20;5.63;;;;;;;2.80;78.98;99922.31;4968577;28;20042;-57
2021/12/06 04:33:31;;;;;;;15.52;5.18;;;;;;;2.78;78.05;99919.75;4969199;28;20074;-52
2021/12/06 04:35:59;;;;;;;25.23;5.85;;;;;;;2.78;77.85;99917.19;4969659;28;20047;-54
2021/12/06 04:38:26;;;;;;;20.88;6.47;;;;;;;2.75;78.05;99919.66;4971262;28;20134;-52
2021/12/06 04:40:53;;;;;;;32.00;6.38;;;;;;;2.74;77.46;99912.81;4968524;28;20109;-52
2021/12/06 04:43:19;;;;;;;19.42;4.93;;;;;;;2.70;77.85;99895.63;4970415;28;20094;-54
2021/12/06 04:45:46;;;;;;;30.15;4.88;;;;;;;2.65;78.17;99892.09;4969895;28;20387;-54
2021/12/06 04:48:13;;;;;;;25.40;5.75;;;;;;;2.62;78.71;99892.88;4968412;28;20053;-54
2021/12/06 04:50:42;;;;;;;26.95;6.20;;;;;;;2.61;78.58;99887.72;4969180;28;20054;-53
2021/12/06 04:53:14;;;;;;;23.77;5.70;;;;;;;2.62;78.84;99877.53;4967509;28;20514;-51
2021/12/06 04:55:48;;;;;;;21.40;5.70;;;;;;;2.63;79.11;99873.31;4967500;28;20042;-51
2021/12/06 04:58:20;;;;;;;28.05;6.00;;;;;;;2.63;78.82;99861.38;4966618;28;20088;-53
2021/12/06 05:00:51;;;;;;;19.88;5.40;;;;;;;2.62;79.00;99866.44;4969807;28;20101;-54
2021/12/06 05:03:19;;;;;;;27.25;6.18;;;;;;;2.62;78.97;99871.56;4967851;28;20109;-53
2021/12/06 05:05:53;;;;;;;27.35;6.60;;;;;;;2.62;78.46;99875.00;4969785;28;20092;-55
2021/12/06 05:08:25;;;;;;;17.38;5.65;;;;;;;2.60;78.41;99868.94;4969573;28;20078;-55
2021/12/06 05:10:54;;;;;;;20.25;6.95;;;;;;;2.62;77.92;99866.44;4969197;28;20059;-50
2021/12/06 05:13:22;;;;;;;22.23;5.90;;;;;;;2.55;77.93;99861.19;4967627;28;20054;-55
2021/12/06 05:15:48;;;;;;;21.20;5.57;;;;;;;2.55;78.65;99856.06;4964857;28;20093;-53
2021/12/06 05:18:15;;;;;;;19.35;6.00;;;;;;;2.54;78.74;99846.63;4966862;28;20063;-51
2021/12/06 05:20:42;;;;;;;19.27;6.63;;;;;;;2.54;78.30;99833.84;4965535;28;20055;-55
2021/12/06 05:23:10;;;;;;;20.88;6.10;;;;;;;2.55;77.72;99824.50;4970286;28;20063;-53
2021/12/06 05:25:37;;;;;;;24.15;6.45;;;;;;;2.55;77.56;99820.28;4968826;28;20395;-57
2021/12/06 05:28:05;;;;;;;21.15;6.07;;;;;;;2.56;78.36;99831.34;4970011;28;20051;-50
2021/12/06 05:30:34;;;;;;;21.23;6.55;;;;;;;2.53;78.36;99827.00;4968581;28;20046;-53
2021/12/06 05:33:02;;;;;;;21.55;7.25;;;;;;;2.50;77.68;99821.81;4966194;28;20062;-54
2021/12/06 05:35:29;;;;;;;21.48;7.10;;;;;;;2.52;77.41;99814.19;4970234;28;20046;-51
2021/12/06 05:37:58;;;;;;;24.13;6.07;;;;;;;2.50;78.14;99806.47;4970113;28;20058;-57
2021/12/06 05:40:29;;;;;;;17.73;5.95;;;;;;;2.48;78.18;99817.50;4967740;28;20046;-55
2021/12/06 05:42:57;;;;;;;21.45;6.13;;;;;;;2.47;78.27;99806.41;4968027;28;20174;-53
2021/12/06 05:45:26;;;;;;;19.65;6.47;;;;;;;2.45;78.75;99792.72;4968416;28;20051;-52
2021/12/06 05:47:53;;;;;;;19.05;7.18;;;;;;;2.43;77.43;99785.00;4968492;28;20046;-48
2021/12/06 05:50:22;;;;;;;20.40;7.38;;;;;;;2.42;77.61;99772.19;4968575;28;20090;-53
2021/12/06 05:52:52;;;;;;;22.65;7.50;;;;;;;2.38;77.76;99755.91;4969592;28;20097;-51
2021/12/06 05:55:19;;;;;;;14.65;5.50;;;;;;;2.37;78.20;99743.09;4966268;28;20050;-56
2021/12/06 05:57:46;;;;;;;14.48;5.47;;;;;;;2.31;78.55;99742.13;4968136;28;20114;-51
2021/12/06 06:00:16;;;;;;;19.70;6.63;;;;;;;2.29;78.81;99736.09;4964031;28;20061;-50
2021/12/06 06:02:43;;;;;;;13.93;4.55;;;;;;;2.23;79.57;99735.91;4967591;28;20054;-50
2021/12/06 06:05:10;;;;;;;15.52;5.15;;;;;;;2.23;78.38;99735.91;4967404;28;20043;-54
2021/12/06 06:07:37;;;;;;;14.77;6.07;;;;;;;2.25;78.55;99733.41;4965921;28;20742;-56
2021/12/06 06:10:05;;;;;;;21.45;6.30;;;;;;;2.27;77.94;99724.94;4970332;28;20054;-52
2021/12/06 06:12:32;;;;;;;16.20;5.85;;;;;;;2.29;78.57;99725.84;4968420;28;20105;-54
2021/12/06 06:14:59;;;;;;;17.13;5.90;;;;;;;2.31;78.62;99724.22;4968367;28;20042;-52
2021/12/06 06:17:27;;;;;;;20.02;6.28;;;;;;;2.33;79.04;99723.38;4967997;28;20498;-54
2021/12/06 06:19:57;;;;;;;16.67;6.38;;;;;;;2.34;78.22;99708.09;4970078;28;20105;-53
2021/12/06 06:22:24;;;;;;;17.17;6.10;;;;;;;2.34;79.03;99697.00;4965791;28;20051;-51
2021/12/06 06:24:51;;;;;;;19.45;7.00;;;;;;;2.36;78.58;99698.75;4968663;28;20106;-54
2021/12/06 06:27:17;;;;;;;16.70;5.18;;;;;;;2.34;78.10;99699.56;4964882;28;20816;-52
2021/12/06 06:29:44;;;;;;;12.75;5.20;;;;;;;2.35;78.34;99704.69;4967547;28;20053;-51
2021/12/06 06:32:11;;;;;;;16.15;4.60;;;;;;;2.35;79.34;99702.16;4967668;28;20339;-56
2021/12/06 06:34:38;;;;;;;22.45;5.05;;;;;;;2.35;79.44;99693.59;4965388;28;20085;-53
2021/12/06 06:37:04;;;;;;;14.02;5.03;;;;;;;2.36;78.61;99687.69;4968059;28;20094;-52
2021/12/06 06:39:31;;;;;;;13.25;5.28;;;;;;;2.36;78.58;99680.03;4967796;28;20525;-54
2021/12/06 06:41:57;;;;;;;14.82;5.40;;;;;;;2.37;79.47;99676.63;4966245;28;20129;-54
2021/12/06 06:44:24;;;;;;;13.98;4.55;;;;;;;2.37;78.37;99674.06;4965327;28;20050;-55
2021/12/06 06:46:52;;;;;;;16.70;6.25;;;;;;;2.35;78.29;99665.50;4966501;28;20043;-53
2021/12/06 06:49:19;;;;;;;14.40;5.60;;;;;;;2.36;79.08;99664.69;4965298;28;20042;-53
2021/12/06 06:51:47;;;;;;;13.95;5.25;;;;;;;2.35;78.13;99668.03;4963779;28;20105;-53
2021/12/06 06:54:14;;;;;;;13.00;4.70;;;;;;;2.37;78.66;99679.19;4965407;28;20055;-54
2021/12/06 06:56:41;;;;;;;10.77;4.93;;;;;;;2.40;78.13;99686.94;4963465;28;20050;-55
2021/12/06 06:59:07;;;;;;;16.25;5.03;;;;;;;2.41;79.42;99681.00;4967567;28;20063;-53
2021/12/06 07:01:34;;;;;;;15.13;5.82;;;;;;;2.43;78.20;99676.75;4964616;28;20507;-56
2021/12/06 07:04:07;;;;;;;18.08;4.78;;;;;;;2.44;78.13;99674.25;4967765;28;20050;-55
2021/12/06 07:06:34;;;;;;;14.68;5.07;;;;;;;2.46;78.94;99676.84;4965609;28;20050;-51
2021/12/06 07:09:02;;;;;;;14.27;4.43;;;;;;;2.47;78.76;99673.47;4968141;28;20447;-56
2021/12/06 07:11:29;;;;;;;12.02;4.22;;;;;;;2.49;78.27;99676.91;4964062;28;20050;-56
2021/12/06 07:13:56;;;;;;;18.48;4.43;;;;;;;2.47;77.86;99676.03;4966672;28;20090;-52
2021/12/06 07:16:24;;;;;;;17.90;5.05;;;;;;;2.47;79.09;99676.03;4965561;28;20102;-51
2021/12/06 07:18:50;;;;;;;11.50;4.05;;;;;;;2.47;78.13;99673.47;4964701;28;20051;-51
2021/12/06 07:21:18;;;;;;;18.67;5.10;;;;;;;2.49;77.87;99676.91;4965450;28;20051;-53
2021/12/06 07:23:46;;;;;;;15.38;5.25;;;;;;;2.51;79.43;99662.50;4961287;28;20435;-51
2021/12/06 07:26:16;;;;;;;14.02;5.57;;;;;;;2.51;78.21;99654.81;4964729;28;20101;-52
2021/12/06 07:28:45;;;;;;;16.83;5.22;;;;;;;2.50;77.92;99642.84;4962671;28;20038;-54
2021/12/06 07:31:12;;;;;;;17.60;5.63;;;;;;;2.49;78.79;99628.34;4967744;28;20411;-55
2021/12/06 07:33:42;;;;;;;17.02;5.72;;;;;;;2.47;79.66;99624.03;4965286;28;20050;-53
2021/12/06 07:36:09;;;;;;;13.00;4.25;;;;;;;2.48;78.32;99612.97;4961219;28;20057;-53
2021/12/06 07:38:38;;;;;;;11.88;4.95;;;;;;;2.46;78.75;99610.38;4966485;28;20063;-52
2021/12/06 07:41:09;;;;;;;14.40;4.72;;;;;;;2.46;78.96;99604.41;4978664;28;20050;-51
2021/12/06 07:43:36;;;;;;;14.95;4.80;;;;;;;2.47;79.29;99601.91;4963403;28;20109;-54
2021/12/06 07:46:04;;;;;;;15.52;5.38;;;;;;;2.49;79.49;99594.22;4961997;28;20081;-54
2021/12/06 07:48:31;;;;;;;15.35;4.38;;;;;;;2.49;78.70;99590.00;4964013;28;20039;-55
2021/12/06 07:50:59;;;;;;;15.95;3.80;;;;;;;2.53;78.58;99591.78;4961625;28;20704;-51
2021/12/06 07:53:29;;;;;;;13.18;3.25;;;;;;;2.56;78.71;99596.09;4962259;28;20058;-54
2021/12/06 07:55:56;;;;;;;12.07;3.25;;;;;;;2.57;79.05;99603.81;4942995;28;20057;-55
2021/12/06 07:58:23;;;;;;;13.23;3.70;;;;;;;2.62;78.43;99608.16;4959005;28;20046;-55
2021/12/06 08:00:52;;;;;;;12.90;3.90;;;;;;;2.64;79.73;99593.75;4965171;28;20046;-53
2021/12/06 08:03:22;;;;;;;14.80;3.67;;;;;;;2.66;78.67;99576.72;4961929;28;20537;-52
2021/12/06 08:05:52;;;;;;;12.07;3.15;;;;;;;2.67;79.06;99563.13;4961072;28;20058;-54
2021/12/06 08:08:23;;;;;;;7.05;2.63;;;;;;;2.66;78.88;99566.50;4963055;28;21702;-59
2021/12/06 08:10:55;;;;;;;13.80;4.18;;;;;;;2.67;79.19;99558.00;4967516;28;20054;-55
2021/12/06 08:13:26;;;;;;;13.00;4.10;;;;;;;2.68;78.76;99560.59;4962812;28;20047;-54
2021/12/06 08:15:58;;;;;;;10.50;3.30;;;;;;;2.66;79.74;99562.25;4966214;28;20555;-56
2021/12/06 08:18:25;;;;;;;10.80;2.47;;;;;;;2.65;79.55;99554.53;4965631;28;20067;-57
2021/12/06 08:20:52;;;;;;;15.30;4.05;;;;;;;2.66;78.77;99546.91;4961229;28;20067;-57
2021/12/06 08:23:19;;;;;;;11.65;4.25;;;;;;;2.66;78.96;99541.78;4961160;28;20109;-50
2021/12/06 08:25:48;;;;;;;11.07;4.03;;;;;;;2.66;79.93;99551.16;4966131;28;20099;-51
2021/12/06 08:28:16;;;;;;;13.32;3.65;;;;;;;2.64;79.66;99552.81;4968054;28;20086;-53
2021/12/06 08:30:44;;;;;;;12.82;4.45;;;;;;;2.66;79.63;99551.16;4969700;28;20105;-53
2021/12/06 08:33:12;;;;;;;14.10;3.97;;;;;;;2.67;79.42;99558.00;4966037;28;20050;-55
2021/12/06 08:35:42;;;;;;;7.90;3.50;;;;;;;2.68;78.93;99554.63;4968166;28;20054;-55
2021/12/06 08:38:10;;;;;;;12.30;3.08;;;;;;;2.69;79.84;99546.97;4966009;28;20133;-57
2021/12/06 08:40:38;;;;;;;13.52;4.13;;;;;;;2.70;79.45;99548.69;4971246;28;20043;-54
2021/12/06 08:43:05;;;;;;;8.60;2.75;;;;;;;2.70;79.37;99537.59;4969770;28;20055;-56
2021/12/06 08:45:32;;;;;;;13.95;3.05;;;;;;;2.71;78.90;99529.13;4970354;28;20051;-56
2021/12/06 08:47:59;;;;;;;11.45;3.80;;;;;;;2.72;79.16;99518.03;4964942;28;20050;-54
2021/12/06 08:50:29;;;;;;;9.68;3.35;;;;;;;2.74;79.28;99513.84;4967244;28;20046;-53
2021/12/06 08:52:56;;;;;;;9.13;3.22;;;;;;;2.77;79.09;99513.88;4965460;28;20657;-53
2021/12/06 08:55:24;;;;;;;10.38;3.17;;;;;;;2.79;78.53;99501.13;4964642;28;20082;-57
2021/12/06 08:57:51;;;;;;;9.82;3.42;;;;;;;2.81;80.05;99504.59;4955154;28;20676;-54
2021/12/06 09:00:21;;;;;;;12.40;4.13;;;;;;;2.83;79.57;99513.13;4957267;28;20101;-54
2021/12/06 09:02:48;;;;;;;13.52;3.28;;;;;;;2.83;78.59;99503.78;4965094;28;20055;-49
2021/12/06 09:05:24;;;;;;;7.68;2.70;;;;;;;2.88;78.53;99500.44;4958591;28;20050;-52
2021/12/06 09:07:51;;;;;;;12.43;2.78;;;;;;;2.91;79.49;99510.75;4951046;28;20055;-56
2021/12/06 09:10:18;;;;;;;6.32;2.13;;;;;;;2.96;79.67;99504.00;4962387;28;20066;-54
2021/12/06 09:12:44;;;;;;;6.50;2.00;;;;;;;3.00;78.62;99507.50;4965807;28;20111;-54
2021/12/06 09:15:17;;;;;;;10.95;2.53;;;;;;;3.03;78.79;99487.94;4969886;28;20051;-55
2021/12/06 09:17:47;;;;;;;33.92;10.85;;;;;;;3.05;79.49;99483.75;4966345;28;20058;-52
2021/12/06 09:20:25;;;;;;;153.77;53.67;;;;;;;3.07;79.13;99471.81;4965796;28;20141;-49
2021/12/06 09:22:52;;;;;;;417.25;122.35;;;;;;;3.10;78.88;99465.06;4963665;28;20093;-52
2021/12/06 09:25:18;;;;;;;299.23;103.47;;;;;;;3.11;78.48;99469.31;4960318;28;20051;-51
2021/12/06 09:27:46;;;;;;;205.80;83.70;;;;;;;3.13;78.93;99465.94;4965278;28;20122;-49
2021/12/06 09:30:16;;;;;;;176.70;55.10;;;;;;;3.14;78.22;99457.44;4963730;28;20089;-52
2021/12/06 09:32:43;;;;;;;9.73;4.65;;;;;;;3.18;78.38;99458.38;4963286;28;20046;-52
2021/12/06 09:35:14;;;;;;;20.92;9.63;;;;;;;3.16;78.25;99449.78;4959711;28;20105;-50
2021/12/06 09:37:42;;;;;;;;;;;;;;;3.16;78.42;99450.66;4964941;28;20105;-55
2021/12/06 09:40:10;;;;;;;314.38;77.72;;;;;;;3.24;78.63;99445.66;4963189;28;19963;-51
2021/12/06 09:42:37;;;;;;;12.77;5.53;;;;;;;3.25;78.37;99438.84;4961640;28;20102;-53
2021/12/06 09:45:07;;;;;;;14.90;3.95;;;;;;;3.26;78.86;99443.13;4963684;28;20047;-55
2021/12/06 09:47:34;;;;;;;74.35;16.48;;;;;;;3.29;78.05;99441.50;4969269;28;20042;-51
2021/12/06 09:50:03;;;;;;;48.83;13.20;;;;;;;3.32;78.25;99441.53;4964642;28;20054;-49
2021/12/06 09:52:29;;;;;;;70.95;19.65;;;;;;;3.33;78.97;99438.16;4965041;28;20479;-55
2021/12/06 09:54:58;;;;;;;112.63;30.65;;;;;;;3.38;78.68;99437.38;4965800;28;20101;-55
2021/12/06 09:57:25;;;;;;;52.50;16.02;;;;;;;3.36;78.58;99431.34;4961596;28;20055;-54
2021/12/06 09:59:52;;;;;;;115.00;34.78;;;;;;;3.34;78.77;99426.19;4963795;28;20113;-52
2021/12/06 10:02:20;;;;;;;160.80;45.92;;;;;;;3.39;77.77;99423.72;4964743;28;20050;-54
2021/12/06 10:04:53;;;;;;;145.45;41.58;;;;;;;3.37;78.67;99425.41;4965866;28;20050;-53
2021/12/06 10:07:22;;;;;;;217.90;82.85;;;;;;;3.33;78.75;99404.88;4963473;28;20061;-56
2021/12/06 10:09:51;;;;;;;55.50;18.20;;;;;;;3.34;78.29;99398.03;4966388;28;20058;-53
2021/12/06 10:12:19;;;;;;;50.83;17.67;;;;;;;3.31;78.46;99393.75;4964514;28;20069;-55
2021/12/06 10:14:47;;;;;;;254.65;121.50;;;;;;;3.31;77.90;99388.63;4968668;28;20125;-56
2021/12/06 10:17:15;;;;;;;88.22;35.05;;;;;;;3.29;78.95;99374.94;4968594;28;20047;-56
2021/12/06 10:19:43;;;;;;;26.10;13.63;;;;;;;3.21;78.10;99374.81;4962911;28;20055;-54
2021/12/06 10:22:10;;;;;;;111.53;47.88;;;;;;;3.22;79.10;99362.88;4964794;28;20054;-56
2021/12/06 10:24:37;;;;;;;88.82;39.53;;;;;;;3.21;79.67;99345.81;4966915;28;20109;-55
2021/12/06 10:27:14;;;;;;;74.85;39.75;;;;;;;3.19;78.82;99347.47;4967048;28;20051;-55
2021/12/06 10:29:44;;;;;;;98.53;48.85;;;;;;;3.16;79.43;99338.06;4966488;28;20051;-56
2021/12/06 10:32:13;;;;;;;;;;;;;;;3.12;78.77;99330.28;4963282;28;20078;-51
2021/12/06 10:34:45;;;;;;;22.52;9.40;;;;;;;3.14;79.10;99331.19;4965530;28;19932;-51
2021/12/06 10:37:33;;;;;;;23.02;10.35;;;;;;;3.11;80.08;99321.78;4963082;28;20109;-55
2021/12/06 10:40:01;;;;;;;45.00;17.60;;;;;;;3.11;79.55;99318.34;4964806;28;20438;-55
2021/12/06 10:42:33;;;;;;;61.05;21.42;;;;;;;3.11;79.37;99308.13;4964596;28;20051;-53
2021/12/06 10:45:08;;;;;;;86.57;29.83;;;;;;;3.10;79.52;99294.44;4965646;28;20097;-53
2021/12/06 10:47:35;;;;;;;104.53;31.15;;;;;;;3.10;79.37;99280.81;4962256;28;20051;-55
2021/12/06 10:50:19;;;;;;;53.80;17.00;;;;;;;3.10;79.23;99261.19;4965735;28;20050;-55
2021/12/06 10:52:50;;;;;;;59.67;20.15;;;;;;;3.11;78.58;99255.25;4967792;28;20054;-50
2021/12/06 10:55:19;;;;;;;153.20;48.03;;;;;;;3.10;79.76;99256.06;4967115;28;20050;-54
2021/12/06 10:57:48;;;;;;;130.88;42.00;;;;;;;3.08;79.42;99243.25;4965781;28;20057;-51
2021/12/06 11:00:41;;;;;;;168.50;56.72;;;;;;;3.07;79.49;99236.41;4965230;28;20097;-52
2021/12/06 11:03:31;;;;;;;48.25;17.05;;;;;;;3.11;79.35;99233.91;4960137;28;20098;-53
2021/12/06 11:06:05;;;;;;;106.28;36.15;;;;;;;3.13;79.22;99224.53;4965788;28;20057;-56
2021/12/06 11:08:34;;;;;;;33.60;11.68;;;;;;;3.11;80.09;99213.44;4964903;28;20518;-54
2021/12/06 11:11:06;;;;;;;92.32;30.88;;;;;;;3.05;79.15;99207.41;4969877;28;20511;-55
2021/12/06 11:13:37;;;;;;;63.53;20.20;;;;;;;3.00;79.19;99191.09;4964282;28;20109;-54
2021/12/06 11:16:20;;;;;;;;;;;;;;;2.98;79.86;99185.13;4962028;28;20093;-51
2021/12/06 11:18:52;;;;;;;63.03;24.17;;;;;;;3.02;80.59;99175.78;4966916;28;20005;-58
2021/12/06 11:21:42;;;;;;;149.65;49.80;;;;;;;3.00;80.31;99165.53;4963312;28;20051;-56
2021/12/06 11:24:32;;;;;;;159.68;56.70;;;;;;;2.98;80.81;99144.19;4967450;28;20054;-54
2021/12/06 11:27:06;;;;;;;68.60;21.08;;;;;;;2.99;80.13;99134.81;4961450;28;20050;-52
2021/12/06 11:29:38;;;;;;;191.10;54.22;;;;;;;2.97;80.00;99116.03;4964343;28;20059;-55
2021/12/06 11:32:12;;;;;;;210.20;61.08;;;;;;;2.97;80.10;99106.63;4964396;28;20059;-57
2021/12/06 11:34:45;;;;;;;123.60;35.85;;;;;;;2.96;80.76;99102.38;4965999;28;20058;-53
2021/12/06 11:37:16;;;;;;;134.05;38.47;;;;;;;3.01;80.01;99103.28;4964818;28;20046;-55
2021/12/06 11:39:46;;;;;;;45.45;14.18;;;;;;;3.02;80.29;99099.91;4963360;28;20054;-55
2021/12/06 11:42:14;;;;;;;48.50;13.45;;;;;;;3.03;80.25;99088.81;4968272;28;20043;-56
2021/12/06 11:44:42;;;;;;;161.82;41.60;;;;;;;3.08;81.29;99073.53;4962521;28;20058;-55